Time;durP1;ratioP1;P1;durP2;ratioP2;P2;SDS_P1;SDS_P2;PMS_P1;PMS_P2;Temp;Humidity;BMP_temperature;BMP_pressure;BME280_temperature;BME280_humidity;BME280_pressure;Samples;Min_cycle;Max_cycle;Signal;HPM_P1;HPM_P2
2021/12/25 00:02:26;;;;;;;;;;;;;;;8.31;100.00;95584.41;5096166;28;19963;-73
2021/12/25 00:04:51;;;;;;;;;;;;;;;8.33;100.00;95571.13;5096268;28;19915;-67
2021/12/25 00:07:16;;;;;;;;;;;;;;;8.36;100.00;95568.03;5115473;28;19915;-67
2021/12/25 00:09:42;;;;;;;;;;;;;;;8.28;100.00;95568.44;5114777;28;19920;-67
2021/12/25 00:12:07;;;;;;;;;;;;;;;8.37;100.00;95568.81;5115242;28;19939;-67
2021/12/25 00:14:32;;;;;;;;;;;;;;;8.57;100.00;95572.50;5114836;28;19931;-67
2021/12/25 00:17:00;;;;;;;;;;;;;;;8.49;100.00;95569.50;5114745;28;19916;-66
2021/12/25 00:19:25;;;;;;;;;;;;;;;8.48;100.00;95570.53;5114681;28;19926;-67
2021/12/25 00:21:50;;;;;;;;;;;;;;;8.38;100.00;95580.84;5114535;28;20010;-67
2021/12/25 00:24:16;;;;;;;;;;;;;;;8.36;100.00;95575.84;5115051;28;19922;-67
2021/12/25 00:34:36;;;;;;;;;;;;;;;8.41;100.00;95567.31;5114764;28;19954;-67
2021/12/25 00:37:01;;;;;;;;;;;;;;;8.38;100.00;95571.19;5114247;28;20344;-67
2021/12/25 00:39:29;;;;;;;;;;;;;;;8.36;100.00;95560.19;5114534;28;20029;-67
2021/12/25 00:41:55;;;;;;;;;;;;;;;8.44;100.00;95561.59;5114430;28;19923;-67
2021/12/25 00:44:20;;;;;;;;;;;;;;;8.37;100.00;95567.00;5114537;28;19916;-67
2021/12/25 00:46:45;;;;;;;;;;;;;;;8.50;100.00;95558.03;5114093;28;19926;-67
2021/12/25 00:49:10;;;;;;;;;;;;;;;8.53;100.00;95557.53;5114546;28;19915;-67
2021/12/25 00:51:36;;;;;;;;;;;;;;;8.58;100.00;95555.00;5096117;28;19959;-67
2021/12/25 00:54:01;;;;;;;;;;;;;;;8.49;100.00;95556.44;5114751;28;19922;-67
2021/12/25 00:56:26;;;;;;;;;;;;;;;8.53;100.00;95555.69;5114350;28;19915;-67
2021/12/25 00:58:52;;;;;;;;;;;;;;;8.46;100.00;95556.94;5114052;28;20420;-68
2021/12/25 01:01:17;;;;;;;;;;;;;;;8.46;100.00;95551.72;5113914;28;19919;-67
2021/12/25 01:03:42;;;;;;;;;;;;;;;8.35;100.00;95550.81;5114025;28;20012;-67
2021/12/25 01:06:07;;;;;;;;;;;;;;;8.49;100.00;95548.59;5114291;28;19922;-70
2021/12/25 01:08:33;;;;;;;;;;;;;;;8.54;100.00;95546.84;5113895;28;19923;-67
2021/12/25 01:10:58;;;;;;;;;;;;;;;8.28;100.00;95543.13;5113880;28;19970;-65
2021/12/25 01:13:28;;;;;;;;;;;;;;;8.36;100.00;95541.91;5113984;28;19932;-66
2021/12/25 01:39:10;;;;;;;;;;;;;;;8.08;100.00;95531.63;5113341;28;19919;-66
2021/12/25 01:49:29;;;;;;;;;;;;;;;8.12;100.00;95511.84;5113516;28;20390;-66
2021/12/25 01:51:54;;;;;;;;;;;;;;;8.02;100.00;95514.34;5113437;28;19916;-66
2021/12/25 01:54:20;;;;;;;;;;;;;;;7.97;100.00;95514.28;5113475;28;19916;-66
2021/12/25 01:56:46;;;;;;;;;;;;;;;7.95;100.00;95514.50;5095622;28;19915;-66
2021/12/25 01:59:11;;;;;;;;;;;;;;;8.37;100.00;95506.94;5113230;28;20372;-66
2021/12/25 02:01:37;;;;;;;;;;;;;;;8.08;100.00;95519.34;5112917;28;20007;-66
2021/12/25 02:04:02;;;;;;;;;;;;;;;7.96;100.00;95512.69;5113426;28;20018;-66
2021/12/25 02:06:27;;;;;;;;;;;;;;;7.97;100.00;95517.66;5113605;28;20007;-67
2021/12/25 02:08:52;;;;;;;;;;;;;;;8.02;100.00;95517.75;5113349;28;19942;-66
2021/12/25 02:11:18;;;;;;;;;;;;;;;7.98;100.00;95516.63;5113296;28;19915;-66
2021/12/25 02:13:43;;;;;;;;;;;;;;;8.01;100.00;95520.59;5113404;28;19958;-66
2021/12/25 02:16:13;;;;;;;;;;;;;;;7.84;100.00;95513.59;5113741;28;20316;-65
2021/12/25 02:21:34;;;;;;;;;;;;;;;7.82;100.00;95515.63;5113541;28;19946;-66
2021/12/25 02:24:00;;;;;;;;;;;;;;;7.85;100.00;95511.78;5113070;28;19972;-66
2021/12/25 02:26:26;;;;;;;;;;;;;;;7.78;100.00;95513.75;5115602;28;19915;-66
2021/12/25 02:28:51;;;;;;;;;;;;;;;7.78;100.00;95505.94;5099092;28;19960;-66
2021/12/25 02:31:17;;;;;;;;;;;;;;;7.86;100.00;95511.50;5117360;28;20010;-66
2021/12/25 02:33:42;;;;;;;;;;;;;;;7.72;100.00;95505.06;5098515;28;20103;-66
2021/12/25 02:36:08;;;;;;;;;;;;;;;7.81;100.00;95511.44;5114069;28;20435;-66
2021/12/25 02:38:34;;;;;;;;;;;;;;;7.83;100.00;95513.81;5117586;28;20268;-66
2021/12/25 02:41:00;;;;;;;;;;;;;;;8.00;100.00;95506.75;5116503;28;19930;-66
2021/12/25 02:43:25;;;;;;;;;;;;;;;7.90;100.00;95504.00;5116861;28;19915;-66
2021/12/25 02:45:54;;;;;;;;;;;;;;;7.83;100.00;95503.38;5116652;28;19920;-66
2021/12/25 02:48:21;;;;;;;;;;;;;;;7.97;100.00;95504.59;5116710;28;19916;-66
2021/12/25 02:50:46;;;;;;;;;;;;;;;7.95;100.00;95506.69;5116596;28;19916;-66
2021/12/25 02:53:12;;;;;;;;;;;;;;;8.07;100.00;95494.31;5117187;28;19938;-66
2021/12/25 02:55:38;;;;;;;;;;;;;;;7.89;100.00;95486.78;5116895;28;19915;-66
2021/12/25 02:58:05;;;;;;;4.63;3.53;;;;;;;7.95;100.00;95491.03;5116363;28;20202;-66
2021/12/25 03:00:56;;;;;;;6.47;5.65;;;;;;;8.07;100.00;95483.88;5114679;28;20395;-66
2021/12/25 03:03:22;;;;;;;5.68;5.18;;;;;;;8.07;100.00;95480.47;5114593;28;20400;-66
2021/12/25 03:05:48;;;;;;;8.77;5.20;;;;;;;8.24;100.00;95468.94;5114946;28;20388;-66
2021/12/25 03:08:15;;;;;;;4.85;4.45;;;;;;;8.12;100.00;95475.31;5096385;28;20511;-66
2021/12/25 03:10:41;;;;;;;4.57;4.05;;;;;;;8.21;100.00;95466.81;5114531;28;20406;-66
2021/12/25 03:15:46;;;;;;;6.50;4.30;;;;;;;8.37;100.00;95467.00;5114305;28;20734;-66
2021/12/25 03:18:14;;;;;;;4.60;4.10;;;;;;;8.14;100.00;95463.59;5114211;28;20877;-66
2021/12/25 03:20:44;;;;;;;4.20;3.80;;;;;;;8.10;100.00;95474.75;5114476;28;20411;-66
2021/12/25 03:23:13;;;;;;;4.13;3.72;;;;;;;8.16;100.00;95473.78;5097017;28;20389;-66
2021/12/25 03:25:40;;;;;;;4.22;3.83;;;;;;;8.09;100.00;95455.69;5114138;28;20465;-71
2021/12/25 03:28:06;;;;;;;3.90;3.55;;;;;;;8.16;100.00;95464.16;5113593;28;20408;-66
2021/12/25 03:30:36;;;;;;;3.60;3.30;;;;;;;8.29;100.00;95452.56;5114221;28;20384;-67
2021/12/25 03:33:02;;;;;;;3.55;3.25;;;;;;;8.15;100.00;95465.16;5114195;28;20380;-68
2021/12/25 03:35:28;;;;;;;3.60;3.30;;;;;;;8.24;100.00;95476.00;5113858;28;20395;-67
2021/12/25 03:37:53;;;;;;;3.67;3.37;;;;;;;8.26;100.00;95500.00;5113585;28;20412;-66
2021/12/25 03:40:18;;;;;;;3.50;3.20;;;;;;;8.08;100.00;95493.25;5095668;28;20395;-71
2021/12/25 03:42:44;;;;;;;4.03;3.30;;;;;;;8.08;100.00;95492.50;5113855;28;20380;-66
2021/12/25 03:45:09;;;;;;;3.70;3.40;;;;;;;8.37;100.00;95495.72;5113612;28;20723;-66
2021/12/25 03:47:37;;;;;;;4.03;3.63;;;;;;;8.32;100.00;95501.69;5113864;28;20400;-66
2021/12/25 03:53:12;;;;;;;4.65;3.40;;;;;;;8.14;100.00;95494.13;5113787;28;20387;-69
2021/12/25 03:58:28;;;;;;;3.08;2.88;;;;;;;8.15;100.00;95482.66;5113556;28;20399;-66
2021/12/25 04:00:59;;;;;;;3.20;2.80;;;;;;;8.10;100.00;95486.00;5112630;28;20446;-66
2021/12/25 04:03:51;;;;;;;3.00;2.80;;;;;;;8.13;100.00;95480.31;5113710;28;20407;-66
2021/12/25 04:06:16;;;;;;;2.80;2.60;;;;;;;8.21;100.00;95485.06;5113163;28;20509;-66
2021/12/25 04:08:45;;;;;;;2.90;2.70;;;;;;;8.31;100.00;95476.59;5113264;28;20406;-67
2021/12/25 04:11:25;;;;;;;2.83;2.63;;;;;;;8.02;100.00;95488.25;5113235;28;20380;-65
2021/12/25 04:13:51;;;;;;;2.88;2.30;;;;;;;8.14;100.00;95486.28;5097833;28;20521;-67
2021/12/25 04:16:16;;;;;;;2.47;2.38;;;;;;;8.25;100.00;95473.13;5113462;28;20811;-70
2021/12/25 04:18:42;;;;;;;2.37;2.17;;;;;;;8.02;100.00;95483.81;5113436;28;20914;-67
2021/12/25 04:21:07;;;;;;;2.38;2.17;;;;;;;8.20;100.00;95462.63;5113085;28;20737;-67
2021/12/25 04:23:36;;;;;;;2.27;2.07;;;;;;;8.04;100.00;95473.91;5113240;28;20484;-66
2021/12/25 04:26:01;;;;;;;2.30;2.10;;;;;;;8.05;100.00;95470.28;5112160;28;20426;-66
2021/12/25 04:28:51;;;;;;;2.40;2.20;;;;;;;8.16;100.00;95463.34;5113350;28;20420;-66
2021/12/25 05:05:53;;;;;;;2.90;2.70;;;;;;;7.98;100.00;95434.94;5112542;28;20821;-65
2021/12/25 05:08:19;;;;;;;3.07;2.87;;;;;;;7.86;100.00;95438.47;5094327;28;20513;-66
2021/12/25 05:10:44;;;;;;;3.47;3.17;;;;;;;8.12;100.00;95430.97;5111989;28;20883;-66
2021/12/25 05:13:10;;;;;;;3.20;2.90;;;;;;;7.99;100.00;95434.72;5112583;28;20857;-66
2021/12/25 05:15:35;;;;;;;3.27;3.07;;;;;;;8.06;100.00;95426.72;5112330;28;20437;-66
2021/12/25 05:18:01;;;;;;;3.65;3.35;;;;;;;8.03;100.00;95427.19;5112087;28;20392;-66
2021/12/25 05:20:27;;;;;;;3.80;3.50;;;;;;;8.00;100.00;95427.69;5112192;28;20462;-66
2021/12/25 05:22:52;;;;;;;4.03;3.70;;;;;;;8.13;100.00;95427.31;5112018;28;20869;-66
2021/12/25 05:25:18;;;;;;;3.70;3.40;;;;;;;7.87;100.00;95432.22;5112148;28;20392;-66
2021/12/25 05:27:45;;;;;;;4.10;3.70;;;;;;;7.80;100.00;95431.59;5111644;28;20416;-66
2021/12/25 05:30:12;;;;;;;3.50;3.20;;;;;;;8.00;100.00;95430.28;5112065;28;20388;-66
2021/12/25 05:32:37;;;;;;;3.90;3.60;;;;;;;7.82;100.00;95431.38;5112242;28;20389;-66
2021/12/25 05:35:03;;;;;;;4.30;3.90;;;;;;;8.08;100.00;95428.03;5112310;28;20415;-66
2021/12/25 05:37:29;;;;;;;4.37;3.97;;;;;;;8.12;100.00;95434.34;5111727;28;20888;-65
2021/12/25 05:39:55;;;;;;;4.38;3.92;;;;;;;8.07;100.00;95436.13;5111780;28;20430;-66
2021/12/25 05:42:22;;;;;;;4.30;3.90;;;;;;;7.97;100.00;95426.34;5111497;28;20389;-66
2021/12/25 05:44:49;;;;;;;3.90;3.58;;;;;;;8.07;100.00;95418.66;5111728;28;20471;-66
2021/12/25 05:47:15;;;;;;;4.60;4.07;;;;;;;8.09;100.00;95426.22;5111654;28;20412;-66
2021/12/25 05:49:40;;;;;;;4.83;4.43;;;;;;;8.28;100.00;95422.25;5111949;28;20395;-66
2021/12/25 05:52:06;;;;;;;4.88;4.47;;;;;;;8.19;100.00;95421.13;5112420;28;20396;-66
2021/12/25 05:54:31;;;;;;;5.30;4.80;;;;;;;8.21;100.00;95426.88;5111773;28;20846;-66
2021/12/25 05:56:57;;;;;;;5.63;5.10;;;;;;;8.06;100.00;95422.28;5111846;28;20393;-66
2021/12/25 05:59:22;;;;;;;6.05;5.20;;;;;;;7.96;100.00;95419.56;5111844;28;20388;-66
2021/12/25 06:01:47;;;;;;;5.90;5.30;;;;;;;8.03;100.00;95422.75;5114159;28;20388;-66
2021/12/25 06:04:13;;;;;;;7.32;5.78;;;;;;;8.12;100.00;95430.97;5115829;28;20491;-66
2021/12/25 06:06:38;;;;;;;8.77;6.07;;;;;;;7.99;100.00;95426.09;5115651;28;20729;-66
2021/12/25 06:09:07;;;;;;;7.03;6.22;;;;;;;7.94;100.00;95430.22;5115235;28;20422;-68
2021/12/25 06:11:36;;;;;;;6.85;6.07;;;;;;;7.87;100.00;95434.84;5115801;28;20411;-65
2021/12/25 06:14:21;;;;;;;6.93;6.07;;;;;;;7.79;100.00;95427.44;5115948;28;20741;-66
2021/12/25 06:16:49;;;;;;;7.70;6.45;;;;;;;7.96;100.00;95427.38;5112838;28;20947;-66
2021/12/25 06:19:15;;;;;;;7.70;6.63;;;;;;;7.83;100.00;95430.34;5115720;28;20521;-66
2021/12/25 06:21:41;;;;;;;7.20;6.33;;;;;;;7.83;100.00;95430.34;5115178;28;20494;-66
2021/12/25 06:24:06;;;;;;;9.02;6.60;;;;;;;7.91;100.00;95420.25;5115603;28;20915;-65
2021/12/25 06:26:33;;;;;;;7.93;6.93;;;;;;;8.08;100.00;95424.66;5115736;28;20420;-65
2021/12/25 06:28:59;;;;;;;8.55;6.65;;;;;;;7.80;100.00;95425.63;5114919;28;20396;-66
2021/12/25 06:31:24;;;;;;;7.53;6.73;;;;;;;7.77;100.00;95415.66;5115278;28;20381;-65
2021/12/25 06:33:50;;;;;;;7.27;6.50;;;;;;;7.80;100.00;95417.81;5115240;28;20393;-66
2021/12/25 06:36:16;;;;;;;7.82;7.03;;;;;;;8.02;100.00;95410.75;5115532;28;20404;-66
2021/12/25 06:38:42;;;;;;;8.38;6.50;;;;;;;8.00;100.00;95412.03;5096452;28;20417;-66
2021/12/25 06:41:10;;;;;;;8.33;6.57;;;;;;;7.97;100.00;95413.28;5114795;28;20411;-66
2021/12/25 06:43:36;;;;;;;7.90;6.80;;;;;;;7.82;100.00;95413.91;5115181;28;20389;-65
2021/12/25 06:46:01;;;;;;;7.10;6.40;;;;;;;7.80;100.00;95429.00;5096640;28;20883;-67
2021/12/25 06:48:27;;;;;;;7.43;6.63;;;;;;;7.98;100.00;95425.31;5114673;28;20389;-66
2021/12/25 06:50:53;;;;;;;7.95;7.13;;;;;;;7.94;100.00;95425.00;5114550;28;20462;-66
2021/12/25 06:53:18;;;;;;;9.75;7.13;;;;;;;7.91;100.00;95428.09;5114992;28;20398;-66
2021/12/25 06:55:44;;;;;;;8.07;7.13;;;;;;;8.11;100.00;95429.38;5114768;28;20393;-66
2021/12/25 06:58:09;;;;;;;8.93;7.30;;;;;;;8.03;100.00;95427.19;5096782;28;20403;-65
2021/12/25 07:00:35;;;;;;;9.25;7.57;;;;;;;7.89;100.00;95421.56;5113749;28;20438;-66
2021/12/25 07:03:00;;;;;;;9.20;7.63;;;;;;;8.05;100.00;95427.75;5096332;28;20435;-66
2021/12/25 07:05:26;;;;;;;8.93;7.67;;;;;;;7.97;100.00;95431.56;5115051;28;20547;-66
2021/12/25 07:07:51;;;;;;;10.93;8.20;;;;;;;8.08;100.00;95428.03;5114813;28;20757;-65
2021/12/25 07:10:18;;;;;;;10.00;8.02;;;;;;;7.85;100.00;95436.91;5114468;28;20434;-66
2021/12/25 07:12:46;;;;;;;10.15;8.07;;;;;;;7.94;100.00;95435.44;5113979;28;20388;-66
2021/12/25 07:15:13;;;;;;;11.13;7.82;;;;;;;7.81;100.00;95438.41;5114870;28;20388;-66
2021/12/25 07:17:38;;;;;;;9.43;7.75;;;;;;;7.83;100.00;95438.97;5114725;28;20399;-65
2021/12/25 07:20:04;;;;;;;8.83;7.87;;;;;;;7.98;100.00;95434.94;5114257;28;20392;-66
2021/12/25 07:22:30;;;;;;;10.30;7.93;;;;;;;8.00;100.00;95438.91;5114349;28;20419;-66
2021/12/25 07:24:55;;;;;;;9.73;7.23;;;;;;;8.14;100.00;95436.69;5114260;28;20424;-66
2021/12/25 07:27:21;;;;;;;7.13;5.93;;;;;;;8.13;100.00;95435.94;5114480;28;20426;-65
2021/12/25 07:29:46;;;;;;;9.50;6.50;;;;;;;8.20;100.00;95449.56;5114408;28;20459;-66
2021/12/25 07:32:11;;;;;;;6.72;5.90;;;;;;;8.21;100.00;95453.75;5114375;28;20920;-66
2021/12/25 07:34:37;;;;;;;7.23;5.57;;;;;;;8.18;100.00;95453.47;5114178;28;20384;-66
2021/12/25 07:37:03;;;;;;;6.38;5.25;;;;;;;8.17;100.00;95452.69;5095705;28;20416;-66
2021/12/25 07:39:29;;;;;;;5.60;5.07;;;;;;;8.24;100.00;95460.31;5114282;28;20392;-70
2021/12/25 07:41:54;;;;;;;5.78;5.22;;;;;;;8.61;100.00;95457.88;5113937;28;20866;-70
2021/12/25 07:44:20;;;;;;;4.82;4.40;;;;;;;8.54;100.00;95465.88;5079097;28;20425;-66
2021/12/25 07:46:45;;;;;;;5.00;4.50;;;;;;;8.43;100.00;95469.44;5113929;28;20414;-67
2021/12/25 07:49:21;;;;;;;4.97;4.47;;;;;;;8.43;100.00;95474.66;5114125;28;20427;-67
2021/12/25 07:51:48;;;;;;;6.60;4.70;;;;;;;8.50;100.00;95483.09;5113295;28;20455;-67
2021/12/25 07:54:13;;;;;;;4.25;3.85;;;;;;;8.42;100.00;95485.31;5113713;28;20396;-67
2021/12/25 07:56:39;;;;;;;4.93;3.97;;;;;;;8.43;100.00;95494.75;5095471;28;20398;-67
2021/12/25 07:59:05;;;;;;;5.55;4.00;;;;;;;8.27;100.00;95496.38;5113153;28;20392;-66
2021/12/25 08:01:34;;;;;;;4.90;3.72;;;;;;;8.29;100.00;95499.53;5113109;28;20429;-67
2021/12/25 08:04:00;;;;;;;4.20;3.80;;;;;;;8.37;100.00;95506.16;5113701;28;21004;-65
2021/12/25 08:06:26;;;;;;;4.47;4.07;;;;;;;8.41;100.00;95494.22;5113346;28;20435;-68
2021/12/25 08:08:55;;;;;;;5.33;4.00;;;;;;;8.46;100.00;95502.09;5113620;28;20603;-68
2021/12/25 08:11:20;;;;;;;4.15;3.80;;;;;;;8.47;100.00;95506.31;5113370;28;20392;-66
2021/12/25 08:13:46;;;;;;;4.47;4.07;;;;;;;8.32;100.00;95515.53;5112951;28;20404;-67
2021/12/25 08:16:11;;;;;;;4.20;3.80;;;;;;;8.46;100.00;95513.34;5112925;28;20388;-67
2021/12/25 08:18:37;;;;;;;4.67;4.17;;;;;;;8.47;100.00;95514.91;5113640;28;20373;-67
2021/12/25 08:21:04;;;;;;;4.80;4.00;;;;;;;8.49;100.00;95497.19;5113679;28;20733;-68
2021/12/25 08:23:30;;;;;;;4.30;3.90;;;;;;;8.53;100.00;95508.69;5112186;28;20880;-65
2021/12/25 08:25:56;;;;;;;4.20;3.85;;;;;;;8.57;100.00;95506.41;5112267;28;20403;-67
2021/12/25 08:28:21;;;;;;;5.33;4.57;;;;;;;8.51;100.00;95510.78;5112995;28;20408;-67
2021/12/25 08:30:47;;;;;;;4.63;4.22;;;;;;;8.57;100.00;95507.19;5113138;28;20388;-67
2021/12/25 08:33:12;;;;;;;5.37;4.20;;;;;;;8.57;100.00;95507.19;5112535;28;20406;-67
2021/12/25 08:35:37;;;;;;;5.20;4.63;;;;;;;8.50;100.00;95508.41;5112812;28;20395;-66
2021/12/25 08:38:03;;;;;;;4.30;3.90;;;;;;;8.63;100.00;95514.06;5112635;28;20968;-65
2021/12/25 08:40:29;;;;;;;4.75;4.32;;;;;;;8.59;100.00;95517.38;5112761;28;20380;-66
2021/12/25 08:43:00;;;;;;;4.70;4.30;;;;;;;8.63;100.00;95508.84;5112677;28;20411;-67
2021/12/25 08:48:10;;;;;;;4.68;4.28;;;;;;;8.71;100.00;95521.44;5112817;28;20999;-67
2021/12/25 08:50:37;;;;;;;5.40;4.53;;;;;;;8.79;100.00;95528.06;5112811;28;20494;-67
2021/12/25 08:53:02;;;;;;;4.90;4.38;;;;;;;8.85;100.00;95526.28;5112321;28;20392;-67
2021/12/25 08:55:27;;;;;;;5.07;4.53;;;;;;;8.74;100.00;95535.84;5112489;28;20384;-66
2021/12/25 08:57:53;;;;;;;5.03;4.53;;;;;;;8.72;100.00;95535.28;5112630;28;20478;-67
2021/12/25 09:00:19;;;;;;;5.03;4.53;;;;;;;8.66;100.00;95538.88;5111464;28;20918;-66
2021/12/25 09:02:46;;;;;;;5.05;4.40;;;;;;;8.59;100.00;95533.03;5112164;28;20380;-67
2021/12/25 09:05:12;;;;;;;4.90;4.40;;;;;;;8.58;100.00;95547.94;5112281;28;20471;-67
2021/12/25 09:07:37;;;;;;;4.45;4.05;;;;;;;8.89;100.00;95543.03;5112414;28;20543;-67
2021/12/25 09:10:03;;;;;;;5.20;4.50;;;;;;;8.93;100.00;95544.13;5112021;28;20424;-68
2021/12/25 09:12:29;;;;;;;4.72;4.30;;;;;;;8.97;100.00;95545.97;5112321;28;20442;-67
2021/12/25 09:14:54;;;;;;;6.10;4.60;;;;;;;8.91;100.00;95539.16;5111999;28;20384;-69
2021/12/25 09:17:20;;;;;;;5.60;4.63;;;;;;;8.85;100.00;95540.13;5111997;28;20397;-70
2021/12/25 09:19:45;;;;;;;5.15;4.65;;;;;;;8.80;100.00;95545.31;5112171;28;20397;-66
2021/12/25 09:22:12;;;;;;;4.80;4.40;;;;;;;8.89;100.00;95543.84;5094116;28;20392;-67
2021/12/25 09:24:38;;;;;;;4.85;4.40;;;;;;;8.81;100.00;95546.88;5112412;28;20395;-66
2021/12/25 09:27:05;;;;;;;4.68;4.28;;;;;;;8.77;100.00;95551.00;5112030;28;20404;-68
2021/12/25 09:29:30;;;;;;;4.28;3.88;;;;;;;8.88;100.00;95552.69;5112000;28;20399;-68
2021/12/25 09:31:56;;;;;;;4.43;4.03;;;;;;;8.77;100.00;95551.81;5093593;28;20678;-66
2021/12/25 09:34:21;;;;;;;4.77;4.20;;;;;;;8.84;100.00;95556.06;5111695;28;20396;-69
2021/12/25 09:36:47;;;;;;;4.00;3.70;;;;;;;8.89;100.00;95554.28;5112054;28;20396;-67
2021/12/25 09:39:12;;;;;;;5.03;3.73;;;;;;;8.87;100.00;95560.78;5112128;28;20445;-67
2021/12/25 09:41:38;;;;;;;4.20;3.83;;;;;;;8.75;100.00;95566.13;5111769;28;20387;-67
2021/12/25 09:44:04;;;;;;;4.77;4.27;;;;;;;8.74;100.00;95562.75;5110386;28;20427;-67
2021/12/25 09:46:31;;;;;;;3.95;3.60;;;;;;;9.01;100.00;95560.16;5111644;28;20396;-68
2021/12/25 09:48:56;;;;;;;4.90;4.40;;;;;;;9.05;100.00;95563.06;5111751;28;20392;-67
2021/12/25 09:51:22;;;;;;;4.50;4.10;;;;;;;9.27;100.00;95561.19;5112007;28;20392;-67
2021/12/25 09:54:06;;;;;;;4.60;3.50;;;;;;;9.14;100.00;95562.34;5111681;28;20533;-68
2021/12/25 09:56:34;;;;;;;4.05;3.40;;;;;;;9.21;100.00;95556.94;5110601;28;20872;-68
2021/12/25 09:58:59;;;;;;;4.15;3.58;;;;;;;9.27;100.00;95563.00;5111755;28;20399;-66
2021/12/25 10:01:40;;;;;;;3.50;3.20;;;;;;;9.05;100.00;95563.84;5110725;28;20400;-68
2021/12/25 10:04:07;;;;;;;4.45;3.00;;;;;;;9.09;100.00;95559.69;5111634;28;20380;-66
2021/12/25 10:06:39;;;;;;;3.40;3.10;;;;;;;9.06;100.00;95554.97;5093412;28;20491;-67
2021/12/25 10:09:19;;;;;;;3.38;3.08;;;;;;;9.27;100.00;95555.94;5111484;28;20384;-65
2021/12/25 10:12:17;;;;;;;3.72;3.10;;;;;;;9.28;100.00;95557.53;5112278;28;20391;-65
2021/12/25 10:14:51;;;;;;;2.88;2.67;;;;;;;9.11;100.00;95564.69;5045944;28;20406;-66
2021/12/25 10:17:26;;;;;;;2.70;2.50;;;;;;;9.40;100.00;95558.16;5109904;28;20431;-65
2021/12/25 10:20:07;;;;;;;2.53;2.33;;;;;;;9.27;100.00;95566.41;5111270;28;20933;-67
2021/12/25 10:22:34;;;;;;;2.47;2.33;;;;;;;9.28;100.00;95556.75;5097421;28;20388;-68
2021/12/25 10:25:11;;;;;;;2.30;2.10;;;;;;;9.30;100.00;95559.91;5110647;28;20400;-69
2021/12/25 10:27:47;;;;;;;2.45;2.25;;;;;;;9.33;100.00;95557.56;5110904;28;20407;-68
2021/12/25 10:30:12;;;;;;;2.67;2.40;;;;;;;9.30;100.00;95557.28;5110976;28;20384;-69
2021/12/25 10:32:39;;;;;;;2.33;2.13;;;;;;;9.39;100.00;95556.59;5111277;28;20448;-68
2021/12/25 10:35:20;;;;;;;3.65;2.38;;;;;;;9.41;100.00;95551.91;5111849;28;20384;-71
2021/12/25 10:37:48;;;;;;;2.30;2.20;;;;;;;9.55;100.00;95552.25;5110922;28;20757;-68
2021/12/25 10:40:25;;;;;;;2.13;2.03;;;;;;;9.71;100.00;95540.06;5111081;28;20399;-68
2021/12/25 10:42:56;;;;;;;2.00;1.90;;;;;;;9.52;100.00;95544.91;5111288;28;20444;-68
2021/12/25 10:45:23;;;;;;;1.90;1.80;;;;;;;9.40;100.00;95534.63;5111007;28;20440;-68
2021/12/25 10:48:01;;;;;;;2.40;2.00;;;;;;;9.46;100.00;95535.47;5113945;28;20479;-69
2021/12/25 10:50:32;;;;;;;2.13;2.00;;;;;;;9.53;100.00;95530.78;5114856;28;20895;-69
2021/12/25 10:52:57;;;;;;;2.13;1.70;;;;;;;9.60;100.00;95529.53;5115079;28;20737;-69
2021/12/25 10:55:25;;;;;;;1.70;1.63;;;;;;;9.54;100.00;95525.31;5096723;28;20393;-69
2021/12/25 10:57:59;;;;;;;1.70;1.60;;;;;;;9.51;100.00;95532.88;5095760;28;20389;-69
2021/12/25 11:00:24;;;;;;;1.20;1.20;;;;;;;9.48;100.00;95531.53;5113513;28;20736;-68
2021/12/25 11:02:49;;;;;;;1.40;1.40;;;;;;;9.60;100.00;95534.78;5114455;28;20384;-68
2021/12/25 11:05:22;;;;;;;1.47;1.37;;;;;;;9.84;100.00;95537.81;5114760;28;20408;-67
2021/12/25 11:08:03;;;;;;;1.50;1.50;;;;;;;9.99;100.00;95539.72;5114003;28;21006;-67
2021/12/25 11:10:30;;;;;;;1.50;1.40;;;;;;;10.18;100.00;95532.28;5096447;28;20483;-68
2021/12/25 11:12:56;;;;;;;1.50;1.40;;;;;;;10.03;100.00;95527.72;5114161;28;20396;-67
2021/12/25 11:15:26;;;;;;;2.00;1.77;;;;;;;10.13;100.00;95530.41;5114702;28;20454;-70
2021/12/25 11:17:54;;;;;;;3.00;2.72;;;;;;;10.46;100.00;95528.47;5123051;27;20400;-72
2021/12/25 11:20:35;;;;;;;1.80;1.70;;;;;;;10.54;100.00;95530.59;5113219;28;20419;-69
2021/12/25 11:23:03;;;;;;;1.60;1.50;;;;;;;10.70;99.04;95534.88;5111522;27;20435;-70
2021/12/25 11:25:31;;;;;;;1.60;1.50;;;;;;;10.42;100.00;95531.59;5097172;28;20778;-69
2021/12/25 11:27:58;;;;;;;1.70;1.60;;;;;;;10.51;100.00;95536.34;5112223;27;20412;-76
2021/12/25 11:30:29;;;;;;;1.67;1.58;;;;;;;10.67;100.00;95536.16;5113081;28;20471;-68
2021/12/25 11:32:56;;;;;;;1.42;1.40;;;;;;;10.54;100.00;95525.34;5095175;28;20468;-68
2021/12/25 11:35:22;;;;;;;1.17;1.17;;;;;;;10.59;99.12;95528.78;5095544;28;20395;-68
2021/12/25 11:37:51;;;;;;;2.15;1.40;;;;;;;10.55;100.00;95532.97;5112838;28;20408;-68
2021/12/25 11:40:22;;;;;;;1.90;1.80;;;;;;;10.56;100.00;95528.50;5113525;28;20416;-67
2021/12/25 11:42:52;;;;;;;1.60;1.50;;;;;;;10.65;99.18;95534.81;5113228;28;20392;-67
2021/12/25 11:45:23;;;;;;;1.77;1.60;;;;;;;10.71;99.03;95526.72;5113725;28;20384;-67
2021/12/25 11:47:54;;;;;;;1.60;1.50;;;;;;;10.57;100.00;95523.03;5110892;27;20411;-67
2021/12/25 11:50:39;;;;;;;1.37;1.20;;;;;;;10.70;100.00;95519.91;5113997;28;20431;-68
2021/12/25 11:53:23;;;;;;;1.60;1.50;;;;;;;10.65;97.93;95512.03;5113283;28;20388;-69
2021/12/25 11:58:48;;;;;;;1.33;1.33;;;;;;;10.28;98.78;95514.00;5113031;28;20396;-69
2021/12/25 12:01:38;;;;;;;1.20;1.20;;;;;;;10.52;97.57;95512.53;5112748;28;20406;-68
2021/12/25 12:04:03;;;;;;;1.13;1.13;;;;;;;10.26;98.09;95514.25;5113151;28;20744;-69
2021/12/25 12:06:43;;;;;;;1.30;1.30;;;;;;;10.41;97.44;95516.16;5112971;28;20483;-68
2021/12/25 12:09:30;;;;;;;1.50;1.40;;;;;;;10.44;98.38;95515.63;5112150;28;21264;-69
2021/12/25 12:12:04;;;;;;;1.35;1.35;;;;;;;10.31;99.07;95506.41;5111660;28;20481;-68
2021/12/25 12:14:31;;;;;;;1.40;1.40;;;;;;;10.35;98.29;95511.94;5113345;28;20396;-68
2021/12/25 12:17:28;;;;;;;1.23;1.23;;;;;;;10.27;99.83;95510.59;5115475;27;20415;-69
2021/12/25 12:19:55;;;;;;;1.33;1.23;;;;;;;10.22;99.46;95510.56;5104658;27;20487;-68
2021/12/25 12:25:19;;;;;;;1.65;1.55;;;;;;;10.35;99.34;95509.31;5113136;28;20835;-69
2021/12/25 12:27:51;;;;;;;1.63;1.52;;;;;;;10.38;98.22;95506.97;5112689;28;20450;-69
2021/12/25 12:30:32;;;;;;;1.48;1.48;;;;;;;10.18;99.25;95519.97;5112903;28;20752;-68
2021/12/25 12:32:59;;;;;;;1.52;1.23;;;;;;;9.93;99.21;95506.72;5112313;28;20904;-68
2021/12/25 12:35:37;;;;;;;1.30;1.20;;;;;;;10.14;98.57;95518.88;5112565;28;20404;-68
2021/12/25 12:38:28;;;;;;;1.50;1.40;;;;;;;10.08;100.00;95519.13;5111485;28;20773;-69
2021/12/25 12:41:26;;;;;;;1.80;1.70;;;;;;;9.92;100.00;95521.63;5112366;28;20415;-68
2021/12/25 12:43:51;;;;;;;2.00;1.48;;;;;;;10.19;100.00;95523.38;5112384;28;20730;-68
2021/12/25 12:46:17;;;;;;;1.70;1.60;;;;;;;10.11;100.00;95526.44;5112615;28;20389;-68
2021/12/25 12:49:05;;;;;;;1.40;1.40;;;;;;;10.08;100.00;95524.34;5091660;28;20449;-69
2021/12/25 12:51:31;;;;;;;1.70;1.60;;;;;;;9.94;100.00;95529.22;5104960;28;20380;-68
2021/12/25 12:53:57;;;;;;;1.67;1.60;;;;;;;10.02;100.00;95523.53;5111932;28;20445;-68
2021/12/25 12:56:23;;;;;;;1.58;1.48;;;;;;;9.93;100.00;95525.03;5076790;28;20865;-69
2021/12/25 12:58:54;;;;;;;1.70;1.60;;;;;;;9.84;100.00;95529.97;5112000;28;20395;-69
2021/12/25 13:01:20;;;;;;;1.65;1.55;;;;;;;9.81;100.00;95533.06;5111477;28;20390;-69
2021/12/25 13:03:46;;;;;;;1.58;1.48;;;;;;;9.91;100.00;95533.16;5112594;28;20396;-68
2021/12/25 13:06:14;;;;;;;2.80;1.60;;;;;;;9.95;100.00;95534.22;5093418;28;20407;-68
2021/12/25 13:08:41;;;;;;;1.60;1.52;;;;;;;9.84;100.00;95532.59;5111924;28;20393;-68
2021/12/25 13:11:22;;;;;;;1.70;1.60;;;;;;;9.83;100.00;95540.69;5111668;28;20385;-68
2021/12/25 13:13:53;;;;;;;1.45;1.35;;;;;;;9.62;100.00;95533.75;5112243;28;20392;-69
2021/12/25 13:16:23;;;;;;;1.60;1.60;;;;;;;9.59;100.00;95540.25;5094773;28;20385;-68
2021/12/25 13:18:54;;;;;;;3.38;2.63;;;;;;;9.60;100.00;95539.22;5111986;28;20385;-68
2021/12/25 13:21:29;;;;;;;3.53;2.75;;;;;;;9.82;100.00;95539.09;5111856;28;20493;-69
2021/12/25 13:23:57;;;;;;;2.22;2.13;;;;;;;9.70;100.00;95543.72;5111595;28;20395;-69
2021/12/25 13:26:33;;;;;;;2.03;1.92;;;;;;;9.17;100.00;95542.78;5111552;28;20392;-68